Lewisville, Ohio
Current Conditions -  °F | °C
As of 4:53 PM on Friday 28 Nov 2014 (Local Time) from KPKB Reporting Station
Scattered Clouds Scattered Clouds  
Wind Chill: 24°   Ceiling: Unl
Heat Index: 30°   Visibility: 10mi
Dew Point: 15°   Wind: 6mph
Humidity: 54%   Direction: 210°SSW
Pressure: 30.28"   Gusts: NA
Location:  39.77°N, 81.22°W
Report Text: KPKB 282153Z 21005KT 10SM SCT100 M01/M09 A3028 RMK AO2 SLP263 T10111094
Loading
Personal Weather Stations






























Interactive Weather Map New forecast layout! Learn more

10-Day Weather Forecast

Advertisements
Track Severe Weather on mobile